sensor_id;sensor_type;location;lat;lon;timestamp;P1;durP1;ratioP1;P2;durP2;ratioP2
7965;SDS011;4028;43.272;26.932;2024-03-22T00:01:47;9.30;;;8.23;;
7965;SDS011;4028;43.272;26.932;2024-03-22T00:04:13;9.37;;;7.83;;
7965;SDS011;4028;43.272;26.932;2024-03-22T00:06:40;7.70;;;6.90;;
7965;SDS011;4028;43.272;26.932;2024-03-22T00:09:06;9.10;;;7.33;;
7965;SDS011;4028;43.272;26.932;2024-03-22T00:11:32;7.70;;;6.97;;
7965;SDS011;4028;43.272;26.932;2024-03-22T00:13:58;7.23;;;6.50;;
7965;SDS011;4028;43.272;26.932;2024-03-22T00:16:23;7.00;;;6.30;;
7965;SDS011;4028;43.272;26.932;2024-03-22T00:18:49;7.87;;;7.07;;
7965;SDS011;4028;43.272;26.932;2024-03-22T00:21:14;8.90;;;7.70;;
7965;SDS011;4028;43.272;26.932;2024-03-22T00:23:40;7.57;;;6.83;;
7965;SDS011;4028;43.272;26.932;2024-03-22T00:26:05;7.15;;;6.45;;
7965;SDS011;4028;43.272;26.932;2024-03-22T00:28:30;8.47;;;6.70;;
7965;SDS011;4028;43.272;26.932;2024-03-22T00:30:56;7.50;;;6.70;;
7965;SDS011;4028;43.272;26.932;2024-03-22T00:33:21;7.37;;;6.60;;
7965;SDS011;4028;43.272;26.932;2024-03-22T00:35:47;6.97;;;6.27;;
7965;SDS011;4028;43.272;26.932;2024-03-22T00:38:12;8.93;;;6.23;;
7965;SDS011;4028;43.272;26.932;2024-03-22T00:40:38;6.67;;;6.07;;
7965;SDS011;4028;43.272;26.932;2024-03-22T00:43:04;6.60;;;6.00;;
7965;SDS011;4028;43.272;26.932;2024-03-22T00:45:29;7.20;;;6.47;;
7965;SDS011;4028;43.272;26.932;2024-03-22T00:47:55;7.23;;;6.37;;
7965;SDS011;4028;43.272;26.932;2024-03-22T00:50:20;6.75;;;6.10;;
7965;SDS011;4028;43.272;26.932;2024-03-22T00:52:46;7.20;;;6.50;;
7965;SDS011;4028;43.272;26.932;2024-03-22T00:55:11;8.00;;;6.30;;
7965;SDS011;4028;43.272;26.932;2024-03-22T00:57:36;7.13;;;6.43;;
7965;SDS011;4028;43.272;26.932;2024-03-22T01:00:02;7.73;;;6.33;;
7965;SDS011;4028;43.272;26.932;2024-03-22T01:02:29;7.20;;;6.50;;
7965;SDS011;4028;43.272;26.932;2024-03-22T01:04:55;9.30;;;7.10;;
7965;SDS011;4028;43.272;26.932;2024-03-22T01:07:20;7.63;;;6.87;;
7965;SDS011;4028;43.272;26.932;2024-03-22T01:09:46;7.67;;;6.87;;
7965;SDS011;4028;43.272;26.932;2024-03-22T01:12:11;8.90;;;7.83;;
7965;SDS011;4028;43.272;26.932;2024-03-22T01:14:37;8.35;;;7.05;;
7965;SDS011;4028;43.272;26.932;2024-03-22T01:17:02;10.97;;;9.60;;
7965;SDS011;4028;43.272;26.932;2024-03-22T01:19:28;10.87;;;9.07;;
7965;SDS011;4028;43.272;26.932;2024-03-22T01:21:53;11.20;;;9.50;;
7965;SDS011;4028;43.272;26.932;2024-03-22T01:24:19;10.23;;;8.87;;
7965;SDS011;4028;43.272;26.932;2024-03-22T01:26:44;11.30;;;8.63;;
7965;SDS011;4028;43.272;26.932;2024-03-22T01:29:09;10.17;;;9.07;;
7965;SDS011;4028;43.272;26.932;2024-03-22T01:31:35;11.47;;;9.60;;
7965;SDS011;4028;43.272;26.932;2024-03-22T01:34:00;11.07;;;8.93;;
7965;SDS011;4028;43.272;26.932;2024-03-22T01:36:26;10.60;;;9.13;;
7965;SDS011;4028;43.272;26.932;2024-03-22T01:38:51;10.87;;;9.57;;
7965;SDS011;4028;43.272;26.932;2024-03-22T01:41:17;11.37;;;10.17;;
7965;SDS011;4028;43.272;26.932;2024-03-22T01:43:43;12.45;;;10.30;;
7965;SDS011;4028;43.272;26.932;2024-03-22T01:46:08;12.80;;;9.30;;
7965;SDS011;4028;43.272;26.932;2024-03-22T01:48:34;10.27;;;8.90;;
7965;SDS011;4028;43.272;26.932;2024-03-22T01:51:00;11.67;;;9.63;;
7965;SDS011;4028;43.272;26.932;2024-03-22T01:53:27;11.75;;;9.15;;
7965;SDS011;4028;43.272;26.932;2024-03-22T01:55:52;13.40;;;9.63;;
7965;SDS011;4028;43.272;26.932;2024-03-22T01:58:18;10.10;;;8.53;;
7965;SDS011;4028;43.272;26.932;2024-03-22T02:00:43;12.27;;;9.50;;
7965;SDS011;4028;43.272;26.932;2024-03-22T02:03:09;12.30;;;9.80;;
7965;SDS011;4028;43.272;26.932;2024-03-22T02:05:34;11.57;;;10.07;;
7965;SDS011;4028;43.272;26.932;2024-03-22T02:08:00;11.77;;;9.77;;
7965;SDS011;4028;43.272;26.932;2024-03-22T02:10:26;11.53;;;10.10;;
7965;SDS011;4028;43.272;26.932;2024-03-22T02:12:51;12.50;;;10.13;;
7965;SDS011;4028;43.272;26.932;2024-03-22T02:15:17;10.73;;;9.30;;
7965;SDS011;4028;43.272;26.932;2024-03-22T02:17:42;12.97;;;10.03;;
7965;SDS011;4028;43.272;26.932;2024-03-22T02:20:08;12.40;;;10.20;;
7965;SDS011;4028;43.272;26.932;2024-03-22T02:22:34;12.60;;;9.83;;
7965;SDS011;4028;43.272;26.932;2024-03-22T02:24:59;10.83;;;9.23;;
7965;SDS011;4028;43.272;26.932;2024-03-22T02:27:25;11.43;;;9.00;;
7965;SDS011;4028;43.272;26.932;2024-03-22T02:29:51;12.00;;;9.30;;
7965;SDS011;4028;43.272;26.932;2024-03-22T02:32:16;14.70;;;10.83;;
7965;SDS011;4028;43.272;26.932;2024-03-22T02:34:42;11.40;;;10.10;;
7965;SDS011;4028;43.272;26.932;2024-03-22T02:37:07;11.03;;;9.20;;
7965;SDS011;4028;43.272;26.932;2024-03-22T02:39:32;10.80;;;9.50;;
7965;SDS011;4028;43.272;26.932;2024-03-22T02:41:58;11.80;;;9.77;;
7965;SDS011;4028;43.272;26.932;2024-03-22T02:44:23;10.00;;;8.90;;
7965;SDS011;4028;43.272;26.932;2024-03-22T02:46:49;10.63;;;8.13;;
7965;SDS011;4028;43.272;26.932;2024-03-22T02:49:14;10.20;;;8.60;;
7965;SDS011;4028;43.272;26.932;2024-03-22T02:51:40;9.57;;;8.57;;
7965;SDS011;4028;43.272;26.932;2024-03-22T02:54:05;10.10;;;9.00;;
7965;SDS011;4028;43.272;26.932;2024-03-22T02:56:31;12.33;;;9.67;;
7965;SDS011;4028;43.272;26.932;2024-03-22T02:58:57;11.40;;;9.27;;
7965;SDS011;4028;43.272;26.932;2024-03-22T03:01:22;10.50;;;8.83;;
7965;SDS011;4028;43.272;26.932;2024-03-22T03:03:48;11.40;;;9.63;;
7965;SDS011;4028;43.272;26.932;2024-03-22T03:06:13;11.13;;;8.77;;
7965;SDS011;4028;43.272;26.932;2024-03-22T03:08:40;11.20;;;9.03;;
7965;SDS011;4028;43.272;26.932;2024-03-22T03:11:05;10.57;;;8.87;;
7965;SDS011;4028;43.272;26.932;2024-03-22T03:13:31;9.43;;;8.07;;
7965;SDS011;4028;43.272;26.932;2024-03-22T03:15:56;8.75;;;7.80;;
7965;SDS011;4028;43.272;26.932;2024-03-22T03:18:22;10.57;;;8.50;;
7965;SDS011;4028;43.272;26.932;2024-03-22T03:20:48;9.40;;;8.40;;
7965;SDS011;4028;43.272;26.932;2024-03-22T03:23:13;12.33;;;8.00;;
7965;SDS011;4028;43.272;26.932;2024-03-22T03:25:39;10.10;;;8.80;;
7965;SDS011;4028;43.272;26.932;2024-03-22T03:28:04;9.30;;;8.23;;
7965;SDS011;4028;43.272;26.932;2024-03-22T03:30:31;10.20;;;8.57;;
7965;SDS011;4028;43.272;26.932;2024-03-22T03:32:57;10.13;;;8.77;;
7965;SDS011;4028;43.272;26.932;2024-03-22T03:35:22;10.87;;;8.80;;
7965;SDS011;4028;43.272;26.932;2024-03-22T03:37:47;8.80;;;7.83;;
7965;SDS011;4028;43.272;26.932;2024-03-22T03:40:13;8.87;;;7.97;;
7965;SDS011;4028;43.272;26.932;2024-03-22T03:42:38;8.27;;;7.37;;
7965;SDS011;4028;43.272;26.932;2024-03-22T03:45:04;10.03;;;7.67;;
7965;SDS011;4028;43.272;26.932;2024-03-22T03:47:30;8.80;;;7.90;;
7965;SDS011;4028;43.272;26.932;2024-03-22T03:49:55;9.90;;;7.27;;
7965;SDS011;4028;43.272;26.932;2024-03-22T03:52:21;9.27;;;7.87;;
7965;SDS011;4028;43.272;26.932;2024-03-22T03:54:46;9.73;;;8.07;;
7965;SDS011;4028;43.272;26.932;2024-03-22T03:57:12;9.13;;;7.60;;
7965;SDS011;4028;43.272;26.932;2024-03-22T03:59:37;9.30;;;8.30;;
7965;SDS011;4028;43.272;26.932;2024-03-22T04:02:03;9.70;;;8.10;;
7965;SDS011;4028;43.272;26.932;2024-03-22T04:04:28;10.43;;;8.63;;
7965;SDS011;4028;43.272;26.932;2024-03-22T04:06:54;10.00;;;8.90;;
7965;SDS011;4028;43.272;26.932;2024-03-22T04:09:19;10.10;;;8.50;;
7965;SDS011;4028;43.272;26.932;2024-03-22T04:11:44;9.73;;;8.73;;
7965;SDS011;4028;43.272;26.932;2024-03-22T04:14:10;10.27;;;8.33;;
7965;SDS011;4028;43.272;26.932;2024-03-22T04:16:35;10.93;;;9.07;;
7965;SDS011;4028;43.272;26.932;2024-03-22T04:19:01;12.10;;;9.00;;
7965;SDS011;4028;43.272;26.932;2024-03-22T04:21:26;9.50;;;8.50;;
7965;SDS011;4028;43.272;26.932;2024-03-22T04:23:52;10.53;;;8.90;;
7965;SDS011;4028;43.272;26.932;2024-03-22T04:26:17;10.97;;;8.73;;
7965;SDS011;4028;43.272;26.932;2024-03-22T04:28:43;11.90;;;9.20;;
7965;SDS011;4028;43.272;26.932;2024-03-22T04:31:08;11.77;;;9.30;;
7965;SDS011;4028;43.272;26.932;2024-03-22T04:33:34;11.70;;;9.83;;
7965;SDS011;4028;43.272;26.932;2024-03-22T04:36:01;11.80;;;9.50;;
7965;SDS011;4028;43.272;26.932;2024-03-22T04:38:27;14.77;;;11.33;;
7965;SDS011;4028;43.272;26.932;2024-03-22T04:40:54;16.03;;;12.03;;
7965;SDS011;4028;43.272;26.932;2024-03-22T04:43:21;15.90;;;12.40;;
7965;SDS011;4028;43.272;26.932;2024-03-22T04:45:48;16.07;;;11.83;;
7965;SDS011;4028;43.272;26.932;2024-03-22T04:48:14;12.90;;;10.07;;
7965;SDS011;4028;43.272;26.932;2024-03-22T04:50:41;11.80;;;9.53;;
7965;SDS011;4028;43.272;26.932;2024-03-22T04:53:07;11.00;;;9.10;;
7965;SDS011;4028;43.272;26.932;2024-03-22T04:55:33;13.50;;;9.90;;
7965;SDS011;4028;43.272;26.932;2024-03-22T04:57:58;11.40;;;9.10;;
7965;SDS011;4028;43.272;26.932;2024-03-22T05:00:24;10.97;;;8.70;;
7965;SDS011;4028;43.272;26.932;2024-03-22T05:02:50;12.93;;;8.90;;
7965;SDS011;4028;43.272;26.932;2024-03-22T05:05:16;11.60;;;8.90;;
7965;SDS011;4028;43.272;26.932;2024-03-22T05:07:42;12.97;;;8.27;;
7965;SDS011;4028;43.272;26.932;2024-03-22T05:10:07;12.47;;;9.50;;
7965;SDS011;4028;43.272;26.932;2024-03-22T05:12:34;10.87;;;9.40;;
7965;SDS011;4028;43.272;26.932;2024-03-22T05:15:00;12.73;;;10.30;;
7965;SDS011;4028;43.272;26.932;2024-03-22T05:17:25;14.80;;;10.93;;
7965;SDS011;4028;43.272;26.932;2024-03-22T05:19:51;14.40;;;12.10;;
7965;SDS011;4028;43.272;26.932;2024-03-22T05:22:17;17.73;;;13.63;;
7965;SDS011;4028;43.272;26.932;2024-03-22T05:24:45;18.00;;;12.60;;
7965;SDS011;4028;43.272;26.932;2024-03-22T05:27:11;13.43;;;10.23;;
7965;SDS011;4028;43.272;26.932;2024-03-22T05:29:37;11.83;;;9.87;;
7965;SDS011;4028;43.272;26.932;2024-03-22T05:32:03;10.43;;;8.83;;
7965;SDS011;4028;43.272;26.932;2024-03-22T05:34:29;13.53;;;8.93;;
7965;SDS011;4028;43.272;26.932;2024-03-22T05:36:55;12.87;;;8.77;;
7965;SDS011;4028;43.272;26.932;2024-03-22T05:39:20;14.50;;;10.20;;
7965;SDS011;4028;43.272;26.932;2024-03-22T05:41:46;13.60;;;8.97;;
7965;SDS011;4028;43.272;26.932;2024-03-22T05:44:11;10.27;;;8.47;;
7965;SDS011;4028;43.272;26.932;2024-03-22T05:46:37;11.20;;;8.17;;
7965;SDS011;4028;43.272;26.932;2024-03-22T05:49:02;15.37;;;9.03;;
7965;SDS011;4028;43.272;26.932;2024-03-22T05:51:28;8.65;;;7.75;;
7965;SDS011;4028;43.272;26.932;2024-03-22T05:53:55;8.90;;;7.27;;
7965;SDS011;4028;43.272;26.932;2024-03-22T05:56:21;12.47;;;7.27;;
7965;SDS011;4028;43.272;26.932;2024-03-22T05:58:46;11.10;;;8.10;;
7965;SDS011;4028;43.272;26.932;2024-03-22T06:01:12;9.47;;;7.57;;
7965;SDS011;4028;43.272;26.932;2024-03-22T06:03:37;10.77;;;8.00;;
7965;SDS011;4028;43.272;26.932;2024-03-22T06:06:03;9.03;;;7.33;;
7965;SDS011;4028;43.272;26.932;2024-03-22T06:08:29;9.80;;;8.05;;
7965;SDS011;4028;43.272;26.932;2024-03-22T06:10:57;9.27;;;7.50;;
7965;SDS011;4028;43.272;26.932;2024-03-22T06:13:22;12.90;;;8.10;;
7965;SDS011;4028;43.272;26.932;2024-03-22T06:15:48;11.60;;;7.30;;
7965;SDS011;4028;43.272;26.932;2024-03-22T06:18:14;11.70;;;8.37;;
7965;SDS011;4028;43.272;26.932;2024-03-22T06:20:40;11.10;;;7.63;;
7965;SDS011;4028;43.272;26.932;2024-03-22T06:23:07;7.77;;;6.77;;
7965;SDS011;4028;43.272;26.932;2024-03-22T06:25:33;8.70;;;7.73;;
7965;SDS011;4028;43.272;26.932;2024-03-22T06:27:58;9.43;;;7.47;;
7965;SDS011;4028;43.272;26.932;2024-03-22T06:30:24;8.77;;;7.00;;
7965;SDS011;4028;43.272;26.932;2024-03-22T06:32:49;17.47;;;15.67;;
7965;SDS011;4028;43.272;26.932;2024-03-22T06:35:15;9.27;;;8.10;;
7965;SDS011;4028;43.272;26.932;2024-03-22T06:37:40;8.73;;;7.90;;
7965;SDS011;4028;43.272;26.932;2024-03-22T06:40:07;9.80;;;8.80;;
7965;SDS011;4028;43.272;26.932;2024-03-22T06:42:33;9.87;;;8.83;;
7965;SDS011;4028;43.272;26.932;2024-03-22T06:44:58;11.00;;;8.50;;
7965;SDS011;4028;43.272;26.932;2024-03-22T06:47:24;10.33;;;8.77;;
7965;SDS011;4028;43.272;26.932;2024-03-22T06:49:49;13.77;;;8.87;;
7965;SDS011;4028;43.272;26.932;2024-03-22T06:52:14;12.93;;;11.63;;
7965;SDS011;4028;43.272;26.932;2024-03-22T06:54:40;14.63;;;12.77;;
7965;SDS011;4028;43.272;26.932;2024-03-22T06:57:06;11.40;;;10.30;;
7965;SDS011;4028;43.272;26.932;2024-03-22T06:59:32;13.77;;;9.40;;
7965;SDS011;4028;43.272;26.932;2024-03-22T07:01:57;9.93;;;8.90;;
7965;SDS011;4028;43.272;26.932;2024-03-22T07:04:23;11.80;;;9.67;;
7965;SDS011;4028;43.272;26.932;2024-03-22T07:06:48;10.90;;;9.90;;
7965;SDS011;4028;43.272;26.932;2024-03-22T07:09:14;18.67;;;16.60;;
7965;SDS011;4028;43.272;26.932;2024-03-22T07:11:40;13.40;;;11.97;;
7965;SDS011;4028;43.272;26.932;2024-03-22T07:14:06;9.33;;;8.13;;
7965;SDS011;4028;43.272;26.932;2024-03-22T07:16:31;9.97;;;6.83;;
7965;SDS011;4028;43.272;26.932;2024-03-22T07:18:56;7.90;;;6.80;;
7965;SDS011;4028;43.272;26.932;2024-03-22T07:21:22;9.70;;;7.87;;
7965;SDS011;4028;43.272;26.932;2024-03-22T07:23:47;7.00;;;6.30;;
7965;SDS011;4028;43.272;26.932;2024-03-22T07:26:13;7.37;;;6.37;;
7965;SDS011;4028;43.272;26.932;2024-03-22T07:28:38;6.63;;;6.03;;
7965;SDS011;4028;43.272;26.932;2024-03-22T07:31:04;8.27;;;7.47;;
7965;SDS011;4028;43.272;26.932;2024-03-22T07:33:30;8.53;;;6.77;;
7965;SDS011;4028;43.272;26.932;2024-03-22T07:36:00;7.40;;;6.70;;
7965;SDS011;4028;43.272;26.932;2024-03-22T07:38:27;6.50;;;5.90;;
7965;SDS011;4028;43.272;26.932;2024-03-22T07:40:53;7.17;;;6.50;;
7965;SDS011;4028;43.272;26.932;2024-03-22T07:43:19;7.33;;;6.63;;
7965;SDS011;4028;43.272;26.932;2024-03-22T07:45:44;6.33;;;5.70;;
7965;SDS011;4028;43.272;26.932;2024-03-22T07:48:10;6.03;;;5.43;;
7965;SDS011;4028;43.272;26.932;2024-03-22T07:50:36;7.17;;;6.53;;
7965;SDS011;4028;43.272;26.932;2024-03-22T07:53:02;9.40;;;6.63;;
7965;SDS011;4028;43.272;26.932;2024-03-22T07:55:27;7.30;;;6.53;;
7965;SDS011;4028;43.272;26.932;2024-03-22T07:57:53;8.43;;;6.90;;
7965;SDS011;4028;43.272;26.932;2024-03-22T08:00:18;7.50;;;6.80;;
7965;SDS011;4028;43.272;26.932;2024-03-22T08:02:44;8.70;;;7.00;;
7965;SDS011;4028;43.272;26.932;2024-03-22T08:05:10;8.93;;;7.37;;
7965;SDS011;4028;43.272;26.932;2024-03-22T08:07:35;12.07;;;8.07;;
7965;SDS011;4028;43.272;26.932;2024-03-22T08:10:01;9.00;;;7.43;;
7965;SDS011;4028;43.272;26.932;2024-03-22T08:12:27;8.60;;;7.37;;
7965;SDS011;4028;43.272;26.932;2024-03-22T08:14:53;8.10;;;7.33;;
7965;SDS011;4028;43.272;26.932;2024-03-22T08:17:18;8.10;;;7.10;;
7965;SDS011;4028;43.272;26.932;2024-03-22T08:19:44;7.97;;;6.63;;
7965;SDS011;4028;43.272;26.932;2024-03-22T08:22:10;8.20;;;7.10;;
7965;SDS011;4028;43.272;26.932;2024-03-22T08:24:36;7.57;;;6.87;;
7965;SDS011;4028;43.272;26.932;2024-03-22T08:27:02;7.63;;;7.00;;
7965;SDS011;4028;43.272;26.932;2024-03-22T08:29:28;6.80;;;6.20;;
7965;SDS011;4028;43.272;26.932;2024-03-22T08:31:54;6.67;;;6.07;;
7965;SDS011;4028;43.272;26.932;2024-03-22T08:34:20;7.23;;;6.53;;
7965;SDS011;4028;43.272;26.932;2024-03-22T08:36:46;8.23;;;6.27;;
7965;SDS011;4028;43.272;26.932;2024-03-22T08:39:12;7.47;;;6.87;;
7965;SDS011;4028;43.272;26.932;2024-03-22T08:41:37;7.37;;;6.20;;
7965;SDS011;4028;43.272;26.932;2024-03-22T08:44:03;8.13;;;7.17;;
7965;SDS011;4028;43.272;26.932;2024-03-22T08:46:28;7.47;;;6.77;;
7965;SDS011;4028;43.272;26.932;2024-03-22T08:48:54;6.93;;;6.23;;
7965;SDS011;4028;43.272;26.932;2024-03-22T08:51:20;6.60;;;6.00;;
7965;SDS011;4028;43.272;26.932;2024-03-22T08:53:46;6.93;;;6.30;;
7965;SDS011;4028;43.272;26.932;2024-03-22T08:56:12;6.32;;;5.72;;
7965;SDS011;4028;43.272;26.932;2024-03-22T08:58:37;6.55;;;5.97;;
7965;SDS011;4028;43.272;26.932;2024-03-22T09:01:03;6.72;;;6.13;;
7965;SDS011;4028;43.272;26.932;2024-03-22T09:03:29;7.10;;;6.40;;
7965;SDS011;4028;43.272;26.932;2024-03-22T09:05:55;6.53;;;5.93;;
7965;SDS011;4028;43.272;26.932;2024-03-22T09:08:21;6.55;;;5.95;;
7965;SDS011;4028;43.272;26.932;2024-03-22T09:10:47;6.55;;;5.95;;
7965;SDS011;4028;43.272;26.932;2024-03-22T09:13:13;6.45;;;5.85;;
7965;SDS011;4028;43.272;26.932;2024-03-22T09:15:38;9.52;;;6.57;;
7965;SDS011;4028;43.272;26.932;2024-03-22T09:18:04;7.13;;;6.45;;
7965;SDS011;4028;43.272;26.932;2024-03-22T09:20:30;6.78;;;6.07;;
7965;SDS011;4028;43.272;26.932;2024-03-22T09:22:56;10.25;;;6.05;;
7965;SDS011;4028;43.272;26.932;2024-03-22T09:25:22;6.75;;;5.47;;
7965;SDS011;4028;43.272;26.932;2024-03-22T09:27:49;7.03;;;5.50;;
7965;SDS011;4028;43.272;26.932;2024-03-22T09:30:15;6.10;;;5.43;;
7965;SDS011;4028;43.272;26.932;2024-03-22T09:32:40;5.88;;;5.28;;
7965;SDS011;4028;43.272;26.932;2024-03-22T09:35:07;5.30;;;4.80;;
7965;SDS011;4028;43.272;26.932;2024-03-22T09:37:33;5.32;;;4.82;;
7965;SDS011;4028;43.272;26.932;2024-03-22T09:39:58;5.07;;;4.67;;
7965;SDS011;4028;43.272;26.932;2024-03-22T09:42:24;5.53;;;4.77;;
7965;SDS011;4028;43.272;26.932;2024-03-22T09:44:51;6.20;;;4.90;;
7965;SDS011;4028;43.272;26.932;2024-03-22T09:47:17;4.27;;;3.90;;
7965;SDS011;4028;43.272;26.932;2024-03-22T09:49:43;5.77;;;4.87;;
7965;SDS011;4028;43.272;26.932;2024-03-22T09:52:14;6.43;;;5.30;;
7965;SDS011;4028;43.272;26.932;2024-03-22T09:54:42;5.37;;;4.97;;
7965;SDS011;4028;43.272;26.932;2024-03-22T09:57:11;6.00;;;4.90;;
7965;SDS011;4028;43.272;26.932;2024-03-22T09:59:41;5.70;;;4.87;;
7965;SDS011;4028;43.272;26.932;2024-03-22T10:02:10;5.67;;;4.60;;
7965;SDS011;4028;43.272;26.932;2024-03-22T10:04:40;6.70;;;4.43;;
7965;SDS011;4028;43.272;26.932;2024-03-22T10:07:06;6.80;;;6.10;;
7965;SDS011;4028;43.272;26.932;2024-03-22T10:09:33;6.87;;;5.27;;
7965;SDS011;4028;43.272;26.932;2024-03-22T10:11:59;5.07;;;4.50;;
7965;SDS011;4028;43.272;26.932;2024-03-22T10:14:25;4.67;;;4.27;;
7965;SDS011;4028;43.272;26.932;2024-03-22T10:16:51;4.70;;;4.30;;
7965;SDS011;4028;43.272;26.932;2024-03-22T10:19:22;6.07;;;5.20;;
7965;SDS011;4028;43.272;26.932;2024-03-22T10:21:48;5.03;;;4.43;;
7965;SDS011;4028;43.272;26.932;2024-03-22T10:24:25;4.43;;;4.03;;
7965;SDS011;4028;43.272;26.932;2024-03-22T10:26:50;4.97;;;4.55;;
7965;SDS011;4028;43.272;26.932;2024-03-22T10:29:16;5.60;;;5.07;;
7965;SDS011;4028;43.272;26.932;2024-03-22T10:31:41;4.63;;;4.23;;
7965;SDS011;4028;43.272;26.932;2024-03-22T10:34:07;4.60;;;4.20;;
7965;SDS011;4028;43.272;26.932;2024-03-22T10:36:36;5.83;;;4.20;;
7965;SDS011;4028;43.272;26.932;2024-03-22T10:39:01;4.80;;;4.20;;
7965;SDS011;4028;43.272;26.932;2024-03-22T10:41:29;4.50;;;4.10;;
7965;SDS011;4028;43.272;26.932;2024-03-22T10:43:54;5.40;;;4.07;;
7965;SDS011;4028;43.272;26.932;2024-03-22T10:46:20;5.13;;;4.40;;
7965;SDS011;4028;43.272;26.932;2024-03-22T10:48:46;5.87;;;5.27;;
7965;SDS011;4028;43.272;26.932;2024-03-22T10:51:12;6.07;;;4.47;;
7965;SDS011;4028;43.272;26.932;2024-03-22T10:53:39;6.70;;;4.90;;
7965;SDS011;4028;43.272;26.932;2024-03-22T10:56:06;6.37;;;5.77;;
7965;SDS011;4028;43.272;26.932;2024-03-22T10:58:34;6.43;;;4.63;;
7965;SDS011;4028;43.272;26.932;2024-03-22T11:01:04;6.50;;;5.83;;
7965;SDS011;4028;43.272;26.932;2024-03-22T11:03:30;18.33;;;12.35;;
7965;SDS011;4028;43.272;26.932;2024-03-22T11:05:56;6.63;;;4.75;;
7965;SDS011;4028;43.272;26.932;2024-03-22T11:10:51;4.70;;;4.30;;
7965;SDS011;4028;43.272;26.932;2024-03-22T11:13:17;4.65;;;4.25;;
7965;SDS011;4028;43.272;26.932;2024-03-22T11:15:43;4.37;;;4.07;;
7965;SDS011;4028;43.272;26.932;2024-03-22T11:18:09;6.67;;;4.83;;
7965;SDS011;4028;43.272;26.932;2024-03-22T11:20:37;4.83;;;4.43;;
7965;SDS011;4028;43.272;26.932;2024-03-22T11:23:06;5.07;;;4.30;;
7965;SDS011;4028;43.272;26.932;2024-03-22T11:25:32;4.60;;;4.00;;
7965;SDS011;4028;43.272;26.932;2024-03-22T11:27:58;5.87;;;5.03;;
7965;SDS011;4028;43.272;26.932;2024-03-22T11:30:26;5.07;;;4.57;;
7965;SDS011;4028;43.272;26.932;2024-03-22T11:32:53;4.90;;;4.13;;
7965;SDS011;4028;43.272;26.932;2024-03-22T11:35:19;5.17;;;4.67;;
7965;SDS011;4028;43.272;26.932;2024-03-22T11:37:44;4.80;;;4.40;;
7965;SDS011;4028;43.272;26.932;2024-03-22T11:40:10;7.07;;;4.43;;
7965;SDS011;4028;43.272;26.932;2024-03-22T11:42:40;5.88;;;4.18;;
7965;SDS011;4028;43.272;26.932;2024-03-22T11:45:11;4.73;;;4.23;;
7965;SDS011;4028;43.272;26.932;2024-03-22T11:47:39;5.10;;;4.30;;
7965;SDS011;4028;43.272;26.932;2024-03-22T11:50:04;6.10;;;4.40;;
7965;SDS011;4028;43.272;26.932;2024-03-22T11:52:30;7.85;;;4.80;;
7965;SDS011;4028;43.272;26.932;2024-03-22T11:54:56;4.85;;;4.35;;
7965;SDS011;4028;43.272;26.932;2024-03-22T11:57:22;4.45;;;4.05;;
7965;SDS011;4028;43.272;26.932;2024-03-22T11:59:50;4.97;;;4.50;;
7965;SDS011;4028;43.272;26.932;2024-03-22T12:02:16;4.88;;;4.43;;
7965;SDS011;4028;43.272;26.932;2024-03-22T12:04:42;6.25;;;4.10;;
7965;SDS011;4028;43.272;26.932;2024-03-22T12:07:11;4.35;;;3.95;;
7965;SDS011;4028;43.272;26.932;2024-03-22T12:09:38;5.47;;;3.95;;
7965;SDS011;4028;43.272;26.932;2024-03-22T12:12:05;4.30;;;3.90;;
7965;SDS011;4028;43.272;26.932;2024-03-22T12:14:33;3.67;;;3.38;;
7965;SDS011;4028;43.272;26.932;2024-03-22T12:16:58;3.80;;;3.50;;
7965;SDS011;4028;43.272;26.932;2024-03-22T12:19:24;3.92;;;3.63;;
7965;SDS011;4028;43.272;26.932;2024-03-22T12:21:49;4.13;;;3.50;;
7965;SDS011;4028;43.272;26.932;2024-03-22T12:24:15;4.40;;;3.30;;
7965;SDS011;4028;43.272;26.932;2024-03-22T12:26:41;3.53;;;3.23;;
7965;SDS011;4028;43.272;26.932;2024-03-22T12:29:06;4.70;;;3.13;;
7965;SDS011;4028;43.272;26.932;2024-03-22T12:31:32;3.63;;;3.33;;
7965;SDS011;4028;43.272;26.932;2024-03-22T12:33:58;3.33;;;3.03;;
7965;SDS011;4028;43.272;26.932;2024-03-22T12:36:24;3.23;;;3.03;;
7965;SDS011;4028;43.272;26.932;2024-03-22T12:38:50;3.70;;;3.40;;
7965;SDS011;4028;43.272;26.932;2024-03-22T12:41:16;4.53;;;2.93;;
7965;SDS011;4028;43.272;26.932;2024-03-22T12:43:41;3.60;;;3.30;;
7965;SDS011;4028;43.272;26.932;2024-03-22T12:46:08;3.37;;;3.07;;
7965;SDS011;4028;43.272;26.932;2024-03-22T12:48:33;8.27;;;3.20;;
7965;SDS011;4028;43.272;26.932;2024-03-22T12:50:59;3.60;;;2.90;;
7965;SDS011;4028;43.272;26.932;2024-03-22T12:53:25;4.27;;;3.37;;
7965;SDS011;4028;43.272;26.932;2024-03-22T12:55:50;4.78;;;3.20;;
7965;SDS011;4028;43.272;26.932;2024-03-22T12:58:16;4.10;;;3.70;;
7965;SDS011;4028;43.272;26.932;2024-03-22T13:00:42;4.00;;;3.40;;
7965;SDS011;4028;43.272;26.932;2024-03-22T13:03:07;4.30;;;4.00;;
7965;SDS011;4028;43.272;26.932;2024-03-22T13:05:33;4.50;;;4.07;;
7965;SDS011;4028;43.272;26.932;2024-03-22T13:07:58;5.22;;;4.15;;
7965;SDS011;4028;43.272;26.932;2024-03-22T13:10:23;4.30;;;3.90;;
7965;SDS011;4028;43.272;26.932;2024-03-22T13:12:49;7.03;;;3.80;;
7965;SDS011;4028;43.272;26.932;2024-03-22T13:15:14;4.80;;;4.33;;
7965;SDS011;4028;43.272;26.932;2024-03-22T13:17:40;5.43;;;3.97;;
7965;SDS011;4028;43.272;26.932;2024-03-22T13:20:05;4.87;;;4.07;;
7965;SDS011;4028;43.272;26.932;2024-03-22T13:22:36;5.53;;;4.00;;
7965;SDS011;4028;43.272;26.932;2024-03-22T13:25:02;4.17;;;3.73;;
7965;SDS011;4028;43.272;26.932;2024-03-22T13:27:31;4.80;;;3.90;;
7965;SDS011;4028;43.272;26.932;2024-03-22T13:29:57;4.97;;;4.40;;
7965;SDS011;4028;43.272;26.932;2024-03-22T13:32:23;7.97;;;4.53;;
7965;SDS011;4028;43.272;26.932;2024-03-22T13:34:48;5.60;;;4.60;;
7965;SDS011;4028;43.272;26.932;2024-03-22T13:37:15;4.50;;;4.10;;
7965;SDS011;4028;43.272;26.932;2024-03-22T13:39:41;4.60;;;4.20;;
7965;SDS011;4028;43.272;26.932;2024-03-22T13:42:06;4.00;;;3.60;;
7965;SDS011;4028;43.272;26.932;2024-03-22T13:44:32;4.80;;;4.40;;
7965;SDS011;4028;43.272;26.932;2024-03-22T13:46:58;4.77;;;4.20;;
7965;SDS011;4028;43.272;26.932;2024-03-22T13:49:23;5.70;;;3.70;;
7965;SDS011;4028;43.272;26.932;2024-03-22T13:51:49;4.13;;;3.73;;
7965;SDS011;4028;43.272;26.932;2024-03-22T13:54:15;5.33;;;3.73;;
7965;SDS011;4028;43.272;26.932;2024-03-22T13:56:41;7.13;;;4.13;;
7965;SDS011;4028;43.272;26.932;2024-03-22T13:59:07;6.17;;;4.77;;
7965;SDS011;4028;43.272;26.932;2024-03-22T14:01:35;4.10;;;3.80;;
7965;SDS011;4028;43.272;26.932;2024-03-22T14:04:01;4.17;;;3.87;;
7965;SDS011;4028;43.272;26.932;2024-03-22T14:06:29;3.83;;;3.47;;
7965;SDS011;4028;43.272;26.932;2024-03-22T14:08:55;4.23;;;3.83;;
7965;SDS011;4028;43.272;26.932;2024-03-22T14:11:25;4.40;;;4.00;;
7965;SDS011;4028;43.272;26.932;2024-03-22T14:13:55;4.40;;;3.93;;
7965;SDS011;4028;43.272;26.932;2024-03-22T14:16:24;4.00;;;3.60;;
7965;SDS011;4028;43.272;26.932;2024-03-22T14:18:50;4.63;;;4.23;;
7965;SDS011;4028;43.272;26.932;2024-03-22T14:21:16;4.67;;;4.23;;
7965;SDS011;4028;43.272;26.932;2024-03-22T14:23:48;5.30;;;4.43;;
7965;SDS011;4028;43.272;26.932;2024-03-22T14:26:14;5.97;;;4.57;;
7965;SDS011;4028;43.272;26.932;2024-03-22T14:28:40;9.27;;;4.73;;
7965;SDS011;4028;43.272;26.932;2024-03-22T14:31:07;4.80;;;4.40;;
7965;SDS011;4028;43.272;26.932;2024-03-22T14:33:34;6.07;;;4.70;;
7965;SDS011;4028;43.272;26.932;2024-03-22T14:36:00;5.73;;;4.80;;
7965;SDS011;4028;43.272;26.932;2024-03-22T14:38:26;10.07;;;6.43;;
7965;SDS011;4028;43.272;26.932;2024-03-22T14:40:52;8.43;;;5.20;;
7965;SDS011;4028;43.272;26.932;2024-03-22T14:43:19;6.43;;;4.80;;
7965;SDS011;4028;43.272;26.932;2024-03-22T14:45:45;7.93;;;5.27;;
7965;SDS011;4028;43.272;26.932;2024-03-22T14:48:10;4.97;;;4.43;;
7965;SDS011;4028;43.272;26.932;2024-03-22T14:50:36;5.93;;;4.63;;